sensor_id;sensor_type;location;lat;lon;timestamp;pressure;altitude;pressure_sealevel;temperature;humidity
73501;BME280;61721;42.206;25.320;2023-07-13T00:01:59;99567.41;;;27.46;54.59
73501;BME280;61721;42.206;25.320;2023-07-13T00:04:27;99574.63;;;27.63;54.10
73501;BME280;61721;42.206;25.320;2023-07-13T00:06:54;99573.50;;;27.79;53.66
73501;BME280;61721;42.206;25.320;2023-07-13T00:09:22;99575.19;;;27.60;54.10
73501;BME280;61721;42.206;25.320;2023-07-13T00:11:53;99571.84;;;27.17;55.44
73501;BME280;61721;42.206;25.320;2023-07-13T00:14:20;99573.22;;;27.14;55.63
73501;BME280;61721;42.206;25.320;2023-07-13T00:16:48;99570.19;;;27.16;55.22
73501;BME280;61721;42.206;25.320;2023-07-13T00:19:15;99572.13;;;27.21;55.44
73501;BME280;61721;42.206;25.320;2023-07-13T00:21:44;99561.31;;;27.04;55.78
73501;BME280;61721;42.206;25.320;2023-07-13T00:24:13;99563.47;;;26.76;56.83
73501;BME280;61721;42.206;25.320;2023-07-13T00:26:41;99567.63;;;26.84;56.42
73501;BME280;61721;42.206;25.320;2023-07-13T00:29:11;99553.25;;;26.82;56.32
73501;BME280;61721;42.206;25.320;2023-07-13T00:31:38;99560.50;;;27.08;55.71
73501;BME280;61721;42.206;25.320;2023-07-13T00:34:05;99563.78;;;26.95;56.20
73501;BME280;61721;42.206;25.320;2023-07-13T00:36:33;99555.81;;;27.24;55.33
73501;BME280;61721;42.206;25.320;2023-07-13T00:39:02;99555.25;;;27.37;54.58
73501;BME280;61721;42.206;25.320;2023-07-13T00:41:31;99561.34;;;27.09;55.50
73501;BME280;61721;42.206;25.320;2023-07-13T00:43:59;99561.00;;;26.90;55.79
73501;BME280;61721;42.206;25.320;2023-07-13T00:46:28;99552.16;;;26.83;56.33
73501;BME280;61721;42.206;25.320;2023-07-13T00:48:57;99550.16;;;26.53;57.03
73501;BME280;61721;42.206;25.320;2023-07-13T00:51:31;99546.03;;;26.61;57.09
73501;BME280;61721;42.206;25.320;2023-07-13T00:54:08;99546.78;;;26.41;57.30
73501;BME280;61721;42.206;25.320;2023-07-13T00:56:37;99541.00;;;26.42;57.32
73501;BME280;61721;42.206;25.320;2023-07-13T00:59:06;99544.34;;;26.55;57.25
73501;BME280;61721;42.206;25.320;2023-07-13T01:01:33;99540.78;;;26.64;56.91
73501;BME280;61721;42.206;25.320;2023-07-13T01:04:02;99546.69;;;27.03;55.34
73501;BME280;61721;42.206;25.320;2023-07-13T01:06:34;99540.03;;;27.04;55.70
73501;BME280;61721;42.206;25.320;2023-07-13T01:09:04;99540.31;;;27.13;54.91
73501;BME280;61721;42.206;25.320;2023-07-13T01:11:33;99545.84;;;27.03;55.59
73501;BME280;61721;42.206;25.320;2023-07-13T01:14:00;99539.50;;;27.02;55.41
73501;BME280;61721;42.206;25.320;2023-07-13T01:16:30;99543.59;;;26.84;56.17
73501;BME280;61721;42.206;25.320;2023-07-13T01:18:58;99544.94;;;26.67;56.52
73501;BME280;61721;42.206;25.320;2023-07-13T01:21:29;99535.75;;;26.41;57.47
73501;BME280;61721;42.206;25.320;2023-07-13T01:23:57;99535.22;;;26.44;56.84
73501;BME280;61721;42.206;25.320;2023-07-13T01:26:24;99545.03;;;26.19;58.16
73501;BME280;61721;42.206;25.320;2023-07-13T01:28:51;99541.38;;;25.99;58.68
73501;BME280;61721;42.206;25.320;2023-07-13T01:31:18;99533.66;;;26.06;58.41
73501;BME280;61721;42.206;25.320;2023-07-13T01:33:46;99536.84;;;26.35;57.80
73501;BME280;61721;42.206;25.320;2023-07-13T01:36:13;99532.75;;;25.85;58.90
73501;BME280;61721;42.206;25.320;2023-07-13T01:38:41;99540.75;;;25.86;59.52
73501;BME280;61721;42.206;25.320;2023-07-13T01:41:09;99547.25;;;25.65;59.63
73501;BME280;61721;42.206;25.320;2023-07-13T01:43:36;99549.16;;;26.17;58.56
73501;BME280;61721;42.206;25.320;2023-07-13T01:46:03;99555.00;;;26.31;57.54
73501;BME280;61721;42.206;25.320;2023-07-13T01:48:30;99547.41;;;26.58;56.66
73501;BME280;61721;42.206;25.320;2023-07-13T01:50:57;99547.53;;;26.26;57.69
73501;BME280;61721;42.206;25.320;2023-07-13T01:53:24;99550.13;;;26.43;57.37
73501;BME280;61721;42.206;25.320;2023-07-13T01:55:53;99550.41;;;26.46;57.12
73501;BME280;61721;42.206;25.320;2023-07-13T01:58:21;99554.25;;;26.40;57.18
73501;BME280;61721;42.206;25.320;2023-07-13T02:00:49;99555.00;;;26.26;57.58
73501;BME280;61721;42.206;25.320;2023-07-13T02:03:16;99556.53;;;25.96;58.92
73501;BME280;61721;42.206;25.320;2023-07-13T02:05:45;99558.38;;;26.33;57.79
73501;BME280;61721;42.206;25.320;2023-07-13T02:08:12;99565.00;;;26.37;57.49
73501;BME280;61721;42.206;25.320;2023-07-13T02:10:39;99560.91;;;25.87;58.77
73501;BME280;61721;42.206;25.320;2023-07-13T02:13:08;99565.94;;;26.00;58.46
73501;BME280;61721;42.206;25.320;2023-07-13T02:15:38;99568.94;;;25.56;59.60
73501;BME280;61721;42.206;25.320;2023-07-13T02:18:06;99557.16;;;26.18;57.38
73501;BME280;61721;42.206;25.320;2023-07-13T02:20:33;99560.72;;;25.62;59.10
73501;BME280;61721;42.206;25.320;2023-07-13T02:23:01;99564.44;;;24.86;60.76
73501;BME280;61721;42.206;25.320;2023-07-13T02:25:28;99565.50;;;25.39;59.49
73501;BME280;61721;42.206;25.320;2023-07-13T02:27:55;99556.78;;;25.52;59.20
73501;BME280;61721;42.206;25.320;2023-07-13T02:30:24;99571.03;;;25.76;58.60
73501;BME280;61721;42.206;25.320;2023-07-13T02:32:51;99575.69;;;25.71;58.93
73501;BME280;61721;42.206;25.320;2023-07-13T02:35:18;99568.38;;;25.92;57.96
73501;BME280;61721;42.206;25.320;2023-07-13T02:37:45;99575.97;;;25.69;58.50
73501;BME280;61721;42.206;25.320;2023-07-13T02:40:13;99578.88;;;25.58;58.72
73501;BME280;61721;42.206;25.320;2023-07-13T02:42:40;99576.28;;;25.41;59.06
73501;BME280;61721;42.206;25.320;2023-07-13T02:45:09;99576.22;;;25.36;59.31
73501;BME280;61721;42.206;25.320;2023-07-13T02:47:41;99580.03;;;24.98;60.69
73501;BME280;61721;42.206;25.320;2023-07-13T02:50:09;99574.81;;;25.01;60.84
73501;BME280;61721;42.206;25.320;2023-07-13T02:52:36;99581.50;;;24.83;60.66
73501;BME280;61721;42.206;25.320;2023-07-13T02:55:03;99585.09;;;24.84;60.92
73501;BME280;61721;42.206;25.320;2023-07-13T02:57:31;99586.38;;;24.76;60.92
73501;BME280;61721;42.206;25.320;2023-07-13T02:59:58;99587.00;;;24.83;60.86
73501;BME280;61721;42.206;25.320;2023-07-13T03:02:26;99577.22;;;24.71;60.98
73501;BME280;61721;42.206;25.320;2023-07-13T03:04:55;99583.63;;;24.76;60.50
73501;BME280;61721;42.206;25.320;2023-07-13T03:07:23;99588.97;;;24.88;60.20
73501;BME280;61721;42.206;25.320;2023-07-13T03:09:54;99596.66;;;25.08;59.80
73501;BME280;61721;42.206;25.320;2023-07-13T03:12:22;99597.19;;;25.05;59.76
73501;BME280;61721;42.206;25.320;2023-07-13T03:14:49;99588.66;;;24.84;60.14
73501;BME280;61721;42.206;25.320;2023-07-13T03:17:16;99586.91;;;24.73;61.02
73501;BME280;61721;42.206;25.320;2023-07-13T03:19:43;99584.78;;;24.80;60.56
73501;BME280;61721;42.206;25.320;2023-07-13T03:22:16;99587.91;;;25.16;59.89
73501;BME280;61721;42.206;25.320;2023-07-13T03:24:44;99583.88;;;24.97;60.62
73501;BME280;61721;42.206;25.320;2023-07-13T03:27:11;99588.47;;;24.91;60.91
73501;BME280;61721;42.206;25.320;2023-07-13T03:29:38;99585.75;;;24.69;61.42
73501;BME280;61721;42.206;25.320;2023-07-13T03:32:06;99592.38;;;24.46;62.51
73501;BME280;61721;42.206;25.320;2023-07-13T03:34:33;99588.41;;;24.59;62.23
73501;BME280;61721;42.206;25.320;2023-07-13T03:37:00;99585.53;;;24.49;62.04
73501;BME280;61721;42.206;25.320;2023-07-13T03:39:29;99594.19;;;24.84;61.18
73501;BME280;61721;42.206;25.320;2023-07-13T03:41:56;99598.47;;;24.97;60.85
73501;BME280;61721;42.206;25.320;2023-07-13T03:44:23;99594.00;;;25.18;59.89
73501;BME280;61721;42.206;25.320;2023-07-13T03:46:50;99601.38;;;25.12;60.26
73501;BME280;61721;42.206;25.320;2023-07-13T03:49:18;99596.78;;;25.23;60.36
73501;BME280;61721;42.206;25.320;2023-07-13T03:51:45;99591.16;;;25.40;59.73
73501;BME280;61721;42.206;25.320;2023-07-13T03:54:12;99597.31;;;25.20;60.18
73501;BME280;61721;42.206;25.320;2023-07-13T03:56:40;99597.94;;;25.27;60.08
73501;BME280;61721;42.206;25.320;2023-07-13T03:59:07;99602.41;;;25.33;59.89
73501;BME280;61721;42.206;25.320;2023-07-13T04:01:35;99598.56;;;25.66;59.35
73501;BME280;61721;42.206;25.320;2023-07-13T04:04:02;99595.44;;;25.58;59.70
73501;BME280;61721;42.206;25.320;2023-07-13T04:06:30;99595.47;;;25.63;59.61
73501;BME280;61721;42.206;25.320;2023-07-13T04:08:59;99594.66;;;26.09;58.09
73501;BME280;61721;42.206;25.320;2023-07-13T04:11:27;99594.72;;;25.08;61.05
73501;BME280;61721;42.206;25.320;2023-07-13T04:13:56;99605.44;;;25.05;61.49
73501;BME280;61721;42.206;25.320;2023-07-13T04:16:24;99598.63;;;25.44;60.43
73501;BME280;61721;42.206;25.320;2023-07-13T04:18:52;99591.97;;;25.40;60.89
73501;BME280;61721;42.206;25.320;2023-07-13T04:21:20;99596.88;;;25.33;60.95
73501;BME280;61721;42.206;25.320;2023-07-13T04:23:48;99591.50;;;25.48;60.59
73501;BME280;61721;42.206;25.320;2023-07-13T04:26:15;99593.53;;;26.05;58.56
73501;BME280;61721;42.206;25.320;2023-07-13T04:28:43;99598.97;;;25.85;59.45
73501;BME280;61721;42.206;25.320;2023-07-13T04:31:11;99606.50;;;26.00;59.03
73501;BME280;61721;42.206;25.320;2023-07-13T04:33:38;99603.16;;;25.93;59.13
73501;BME280;61721;42.206;25.320;2023-07-13T04:36:06;99603.13;;;25.87;58.98
73501;BME280;61721;42.206;25.320;2023-07-13T04:38:35;99604.47;;;25.85;59.83
73501;BME280;61721;42.206;25.320;2023-07-13T04:41:04;99606.78;;;25.98;59.27
73501;BME280;61721;42.206;25.320;2023-07-13T04:43:32;99614.25;;;26.08;59.23
73501;BME280;61721;42.206;25.320;2023-07-13T04:46:04;99621.94;;;26.01;59.33
73501;BME280;61721;42.206;25.320;2023-07-13T04:48:34;99616.66;;;25.89;60.07
73501;BME280;61721;42.206;25.320;2023-07-13T04:51:01;99616.97;;;26.03;59.80
73501;BME280;61721;42.206;25.320;2023-07-13T04:53:29;99622.75;;;25.96;60.43
73501;BME280;61721;42.206;25.320;2023-07-13T04:55:56;99620.00;;;26.01;60.34
73501;BME280;61721;42.206;25.320;2023-07-13T04:58:24;99623.94;;;26.15;59.81
73501;BME280;61721;42.206;25.320;2023-07-13T05:00:51;99626.16;;;26.13;58.81
73501;BME280;61721;42.206;25.320;2023-07-13T05:03:18;99620.28;;;26.47;58.11
73501;BME280;61721;42.206;25.320;2023-07-13T05:05:56;99619.25;;;26.68;56.72
73501;BME280;61721;42.206;25.320;2023-07-13T05:08:23;99626.97;;;26.61;57.56
73501;BME280;61721;42.206;25.320;2023-07-13T05:10:51;99616.53;;;26.83;57.47
73501;BME280;61721;42.206;25.320;2023-07-13T05:13:18;99623.06;;;26.57;57.44
73501;BME280;61721;42.206;25.320;2023-07-13T05:15:46;99612.72;;;27.00;56.69
73501;BME280;61721;42.206;25.320;2023-07-13T05:18:14;99618.84;;;27.32;55.12
73501;BME280;61721;42.206;25.320;2023-07-13T05:20:41;99625.78;;;27.40;55.43
73501;BME280;61721;42.206;25.320;2023-07-13T05:23:09;99626.34;;;27.37;55.30
73501;BME280;61721;42.206;25.320;2023-07-13T05:25:36;99613.69;;;26.58;57.40
73501;BME280;61721;42.206;25.320;2023-07-13T05:28:04;99616.47;;;26.68;57.38
73501;BME280;61721;42.206;25.320;2023-07-13T05:30:31;99623.47;;;26.91;56.41
73501;BME280;61721;42.206;25.320;2023-07-13T05:32:59;99622.06;;;26.89;57.15
73501;BME280;61721;42.206;25.320;2023-07-13T05:35:26;99623.44;;;26.81;57.87
73501;BME280;61721;42.206;25.320;2023-07-13T05:37:53;99625.94;;;26.88;57.48
73501;BME280;61721;42.206;25.320;2023-07-13T05:40:22;99637.63;;;27.15;56.74
73501;BME280;61721;42.206;25.320;2023-07-13T05:42:49;99635.16;;;27.24;55.78
73501;BME280;61721;42.206;25.320;2023-07-13T05:45:16;99632.13;;;27.35;54.97
73501;BME280;61721;42.206;25.320;2023-07-13T05:47:43;99629.06;;;27.16;55.03
73501;BME280;61721;42.206;25.320;2023-07-13T05:50:10;99629.09;;;27.37;54.35
73501;BME280;61721;42.206;25.320;2023-07-13T05:52:38;99628.25;;;27.31;54.49
73501;BME280;61721;42.206;25.320;2023-07-13T05:55:05;99630.47;;;27.44;54.30
73501;BME280;61721;42.206;25.320;2023-07-13T05:57:34;99629.41;;;27.61;53.80
73501;BME280;61721;42.206;25.320;2023-07-13T06:00:01;99620.53;;;27.79;53.26
73501;BME280;61721;42.206;25.320;2023-07-13T06:02:29;99622.47;;;27.78;52.89
73501;BME280;61721;42.206;25.320;2023-07-13T06:04:56;99627.13;;;28.08;52.67
73501;BME280;61721;42.206;25.320;2023-07-13T06:07:23;99629.41;;;27.71;53.34
73501;BME280;61721;42.206;25.320;2023-07-13T06:09:51;99626.63;;;27.91;53.49
73501;BME280;61721;42.206;25.320;2023-07-13T06:12:18;99624.94;;;28.00;53.24
73501;BME280;61721;42.206;25.320;2023-07-13T06:14:46;99625.47;;;28.23;52.32
73501;BME280;61721;42.206;25.320;2023-07-13T06:17:13;99629.06;;;28.08;53.27
73501;BME280;61721;42.206;25.320;2023-07-13T06:19:40;99625.16;;;28.29;52.59
73501;BME280;61721;42.206;25.320;2023-07-13T06:22:07;99624.78;;;28.56;51.96
73501;BME280;61721;42.206;25.320;2023-07-13T06:24:35;99626.00;;;28.30;51.90
73501;BME280;61721;42.206;25.320;2023-07-13T06:27:05;99618.16;;;28.52;51.03
73501;BME280;61721;42.206;25.320;2023-07-13T06:29:32;99625.53;;;28.67;50.69
73501;BME280;61721;42.206;25.320;2023-07-13T06:32:01;99623.06;;;28.65;51.30
73501;BME280;61721;42.206;25.320;2023-07-13T06:34:28;99627.97;;;28.78;50.72
73501;BME280;61721;42.206;25.320;2023-07-13T06:36:55;99623.50;;;28.93;51.42
73501;BME280;61721;42.206;25.320;2023-07-13T06:39:22;99616.84;;;28.94;51.17
73501;BME280;61721;42.206;25.320;2023-07-13T07:49:49;99592.66;;;31.29;43.47
73501;BME280;61721;42.206;25.320;2023-07-13T07:52:23;99601.81;;;31.49;43.36
73501;BME280;61721;42.206;25.320;2023-07-13T07:57:56;99603.78;;;31.81;42.15
73501;BME280;61721;42.206;25.320;2023-07-13T08:00:28;99599.22;;;31.71;42.34
73501;BME280;61721;42.206;25.320;2023-07-13T08:03:02;99594.50;;;31.53;42.70
73501;BME280;61721;42.206;25.320;2023-07-13T08:05:30;99596.69;;;31.88;42.20
73501;BME280;61721;42.206;25.320;2023-07-13T08:07:57;99595.97;;;31.64;42.63
73501;BME280;61721;42.206;25.320;2023-07-13T08:10:25;99590.19;;;32.07;42.05
73501;BME280;61721;42.206;25.320;2023-07-13T08:12:52;99589.06;;;32.08;41.69
73501;BME280;61721;42.206;25.320;2023-07-13T08:15:20;99586.16;;;31.85;41.57
73501;BME280;61721;42.206;25.320;2023-07-13T08:17:49;99584.72;;;31.88;40.88
73501;BME280;61721;42.206;25.320;2023-07-13T08:20:16;99588.66;;;32.01;39.17
73501;BME280;61721;42.206;25.320;2023-07-13T08:22:45;99585.28;;;32.31;38.59
73501;BME280;61721;42.206;25.320;2023-07-13T08:25:12;99589.53;;;32.28;39.43
73501;BME280;61721;42.206;25.320;2023-07-13T08:27:39;99586.63;;;32.47;39.68
73501;BME280;61721;42.206;25.320;2023-07-13T08:30:12;99587.03;;;32.54;39.87
73501;BME280;61721;42.206;25.320;2023-07-13T08:32:39;99579.97;;;32.71;38.63
73501;BME280;61721;42.206;25.320;2023-07-13T08:35:06;99578.78;;;32.49;38.51
73501;BME280;61721;42.206;25.320;2023-07-13T08:37:33;99582.88;;;32.66;38.55
73501;BME280;61721;42.206;25.320;2023-07-13T08:40:02;99588.47;;;32.79;39.28
73501;BME280;61721;42.206;25.320;2023-07-13T08:42:34;99579.31;;;33.01;37.70
73501;BME280;61721;42.206;25.320;2023-07-13T08:45:14;99576.91;;;33.08;36.90
73501;BME280;61721;42.206;25.320;2023-07-13T08:47:47;99580.78;;;32.99;38.49
73501;BME280;61721;42.206;25.320;2023-07-13T08:50:17;99580.28;;;32.83;37.80
73501;BME280;61721;42.206;25.320;2023-07-13T08:52:47;99586.56;;;33.24;36.75
73501;BME280;61721;42.206;25.320;2023-07-13T08:55:18;99577.34;;;33.38;35.63
73501;BME280;61721;42.206;25.320;2023-07-13T08:57:53;99581.78;;;33.39;35.48
73501;BME280;61721;42.206;25.320;2023-07-13T09:00:25;99584.06;;;33.59;36.06
73501;BME280;61721;42.206;25.320;2023-07-13T09:03:01;99572.81;;;33.28;36.47
73501;BME280;61721;42.206;25.320;2023-07-13T09:05:31;99578.66;;;33.40;36.59
73501;BME280;61721;42.206;25.320;2023-07-13T09:08:16;99567.38;;;33.45;35.52
73501;BME280;61721;42.206;25.320;2023-07-13T09:11:01;99572.75;;;33.42;35.83
73501;BME280;61721;42.206;25.320;2023-07-13T09:13:39;99573.16;;;33.49;36.13
73501;BME280;61721;42.206;25.320;2023-07-13T09:16:11;99563.50;;;33.86;35.12
73501;BME280;61721;42.206;25.320;2023-07-13T09:18:42;99563.38;;;33.60;35.00
73501;BME280;61721;42.206;25.320;2023-07-13T09:21:15;99569.59;;;33.57;34.58
73501;BME280;61721;42.206;25.320;2023-07-13T09:23:43;99560.06;;;33.80;34.43
73501;BME280;61721;42.206;25.320;2023-07-13T09:26:14;99559.69;;;34.13;34.42
73501;BME280;61721;42.206;25.320;2023-07-13T09:28:45;99545.56;;;34.18;33.40
73501;BME280;61721;42.206;25.320;2023-07-13T09:31:17;99547.56;;;34.26;33.37
73501;BME280;61721;42.206;25.320;2023-07-13T09:33:47;99542.28;;;34.25;34.31
73501;BME280;61721;42.206;25.320;2023-07-13T09:36:24;99545.47;;;34.40;33.53
73501;BME280;61721;42.206;25.320;2023-07-13T09:38:57;99532.75;;;34.26;33.01
73501;BME280;61721;42.206;25.320;2023-07-13T09:41:33;99527.66;;;34.28;32.61
73501;BME280;61721;42.206;25.320;2023-07-13T09:44:10;99524.13;;;34.53;32.94
73501;BME280;61721;42.206;25.320;2023-07-13T09:46:39;99515.94;;;34.82;32.41
73501;BME280;61721;42.206;25.320;2023-07-13T09:49:09;99513.25;;;34.51;31.92
73501;BME280;61721;42.206;25.320;2023-07-13T09:51:37;99509.00;;;34.80;31.85
73501;BME280;61721;42.206;25.320;2023-07-13T09:54:04;99508.50;;;34.78;31.16
73501;BME280;61721;42.206;25.320;2023-07-13T09:56:33;99490.59;;;34.96;31.25
73501;BME280;61721;42.206;25.320;2023-07-13T09:59:00;99502.09;;;35.12;31.25
73501;BME280;61721;42.206;25.320;2023-07-13T10:01:35;99492.41;;;35.09;31.93
73501;BME280;61721;42.206;25.320;2023-07-13T10:04:10;99491.69;;;35.30;31.28
73501;BME280;61721;42.206;25.320;2023-07-13T10:06:39;99484.78;;;35.44;31.41
73501;BME280;61721;42.206;25.320;2023-07-13T10:09:08;99487.44;;;35.24;31.24
73501;BME280;61721;42.206;25.320;2023-07-13T10:11:40;99482.97;;;35.40;30.17
73501;BME280;61721;42.206;25.320;2023-07-13T10:14:12;99482.81;;;35.28;29.04
73501;BME280;61721;42.206;25.320;2023-07-13T10:16:42;99480.19;;;35.40;29.94
73501;BME280;61721;42.206;25.320;2023-07-13T10:19:13;99470.13;;;35.30;29.06
73501;BME280;61721;42.206;25.320;2023-07-13T10:21:47;99465.25;;;35.65;29.87
73501;BME280;61721;42.206;25.320;2023-07-13T10:24:20;99464.22;;;35.78;29.03
73501;BME280;61721;42.206;25.320;2023-07-13T10:27:02;99467.28;;;35.56;29.19
73501;BME280;61721;42.206;25.320;2023-07-13T10:29:36;99462.91;;;35.85;28.92
73501;BME280;61721;42.206;25.320;2023-07-13T10:32:09;99455.44;;;35.51;28.96
73501;BME280;61721;42.206;25.320;2023-07-13T10:34:37;99462.19;;;35.96;28.77
73501;BME280;61721;42.206;25.320;2023-07-13T10:37:05;99469.66;;;36.13;28.91
73501;BME280;61721;42.206;25.320;2023-07-13T10:39:35;99454.25;;;35.98;28.67
73501;BME280;61721;42.206;25.320;2023-07-13T10:42:12;99447.66;;;36.24;28.73
73501;BME280;61721;42.206;25.320;2023-07-13T10:44:41;99448.69;;;36.19;26.35
73501;BME280;61721;42.206;25.320;2023-07-13T10:47:13;99450.25;;;36.37;26.84
73501;BME280;61721;42.206;25.320;2023-07-13T10:49:44;99446.59;;;36.58;26.40
73501;BME280;61721;42.206;25.320;2023-07-13T10:52:41;99446.50;;;36.25;26.93
73501;BME280;61721;42.206;25.320;2023-07-13T10:55:33;99440.78;;;36.63;27.21
73501;BME280;61721;42.206;25.320;2023-07-13T10:58:10;99440.44;;;36.43;26.50
73501;BME280;61721;42.206;25.320;2023-07-13T11:00:46;99440.31;;;36.40;26.76
73501;BME280;61721;42.206;25.320;2023-07-13T11:03:17;99433.06;;;36.39;27.00
73501;BME280;61721;42.206;25.320;2023-07-13T11:05:49;99429.88;;;36.61;26.76
73501;BME280;61721;42.206;25.320;2023-07-13T11:08:32;99422.03;;;36.55;25.66
73501;BME280;61721;42.206;25.320;2023-07-13T11:11:01;99429.22;;;36.85;25.92
73501;BME280;61721;42.206;25.320;2023-07-13T11:13:59;99425.66;;;36.76;24.60
73501;BME280;61721;42.206;25.320;2023-07-13T11:16:46;99419.84;;;36.81;24.72
73501;BME280;61721;42.206;25.320;2023-07-13T11:22:22;99416.03;;;36.98;24.37
73501;BME280;61721;42.206;25.320;2023-07-13T11:24:58;99413.81;;;37.03;23.77
73501;BME280;61721;42.206;25.320;2023-07-13T11:27:36;99415.09;;;37.39;23.08
73501;BME280;61721;42.206;25.320;2023-07-13T11:30:22;99418.97;;;37.47;24.22
73501;BME280;61721;42.206;25.320;2023-07-13T11:32:52;99410.19;;;37.36;22.88
73501;BME280;61721;42.206;25.320;2023-07-13T11:35:33;99414.53;;;37.58;23.33
73501;BME280;61721;42.206;25.320;2023-07-13T11:38:02;99409.97;;;37.53;23.69
73501;BME280;61721;42.206;25.320;2023-07-13T11:40:42;99411.13;;;37.40;23.81
73501;BME280;61721;42.206;25.320;2023-07-13T11:43:13;99404.09;;;37.46;23.28
73501;BME280;61721;42.206;25.320;2023-07-13T11:45:42;99403.53;;;37.41;23.67
73501;BME280;61721;42.206;25.320;2023-07-13T11:48:20;99409.69;;;37.22;24.52
73501;BME280;61721;42.206;25.320;2023-07-13T11:51:06;99398.47;;;37.34;24.43
73501;BME280;61721;42.206;25.320;2023-07-13T11:53:39;99401.91;;;37.06;23.41
73501;BME280;61721;42.206;25.320;2023-07-13T11:56:07;99396.72;;;37.42;23.90
73501;BME280;61721;42.206;25.320;2023-07-13T11:58:34;99394.28;;;37.64;23.98
73501;BME280;61721;42.206;25.320;2023-07-13T12:01:03;99386.59;;;37.74;23.82
73501;BME280;61721;42.206;25.320;2023-07-13T12:03:32;99386.22;;;37.75;23.11
73501;BME280;61721;42.206;25.320;2023-07-13T12:06:02;99377.09;;;37.78;23.36
73501;BME280;61721;42.206;25.320;2023-07-13T12:08:32;99375.66;;;37.60;22.84
73501;BME280;61721;42.206;25.320;2023-07-13T12:11:09;99372.75;;;37.93;22.35
73501;BME280;61721;42.206;25.320;2023-07-13T12:13:39;99371.47;;;37.78;22.52
73501;BME280;61721;42.206;25.320;2023-07-13T12:16:17;99371.59;;;37.82;23.11
73501;BME280;61721;42.206;25.320;2023-07-13T12:18:48;99363.69;;;38.12;23.36
73501;BME280;61721;42.206;25.320;2023-07-13T12:21:18;99359.38;;;37.65;22.78
73501;BME280;61721;42.206;25.320;2023-07-13T12:23:48;99356.59;;;37.65;22.41
73501;BME280;61721;42.206;25.320;2023-07-13T12:26:17;99363.16;;;37.69;22.39
73501;BME280;61721;42.206;25.320;2023-07-13T12:28:47;99334.59;;;37.80;22.62
73501;BME280;61721;42.206;25.320;2023-07-13T12:31:42;99350.22;;;38.17;21.07
73501;BME280;61721;42.206;25.320;2023-07-13T12:34:11;99357.81;;;38.29;21.17
73501;BME280;61721;42.206;25.320;2023-07-13T12:36:45;99348.56;;;38.28;21.20
73501;BME280;61721;42.206;25.320;2023-07-13T12:39:16;99350.34;;;38.09;21.33
73501;BME280;61721;42.206;25.320;2023-07-13T12:41:44;99345.94;;;37.83;20.66
73501;BME280;61721;42.206;25.320;2023-07-13T12:44:12;99347.34;;;37.65;21.04
73501;BME280;61721;42.206;25.320;2023-07-13T12:46:52;99338.88;;;38.14;21.56
73501;BME280;61721;42.206;25.320;2023-07-13T12:49:23;99336.16;;;38.05;21.46
73501;BME280;61721;42.206;25.320;2023-07-13T12:51:55;99328.47;;;37.65;21.08
73501;BME280;61721;42.206;25.320;2023-07-13T12:54:24;99321.94;;;37.49;20.83
73501;BME280;61721;42.206;25.320;2023-07-13T12:56:53;99316.78;;;37.39;20.83
73501;BME280;61721;42.206;25.320;2023-07-13T12:59:22;99323.56;;;37.38;21.54
73501;BME280;61721;42.206;25.320;2023-07-13T13:01:53;99319.34;;;37.81;21.98
73501;BME280;61721;42.206;25.320;2023-07-13T13:04:20;99310.44;;;37.91;21.79
73501;BME280;61721;42.206;25.320;2023-07-13T13:06:49;99320.69;;;38.23;22.19
73501;BME280;61721;42.206;25.320;2023-07-13T13:09:17;99308.72;;;38.26;20.89
73501;BME280;61721;42.206;25.320;2023-07-13T13:11:54;99313.06;;;38.24;21.27
73501;BME280;61721;42.206;25.320;2023-07-13T13:14:21;99319.84;;;38.51;21.08
73501;BME280;61721;42.206;25.320;2023-07-13T13:16:50;99313.44;;;38.10;20.87
73501;BME280;61721;42.206;25.320;2023-07-13T13:19:22;99305.03;;;37.98;21.12
73501;BME280;61721;42.206;25.320;2023-07-13T13:21:53;99301.41;;;37.97;21.09
73501;BME280;61721;42.206;25.320;2023-07-13T13:24:22;99303.91;;;37.75;20.73
73501;BME280;61721;42.206;25.320;2023-07-13T13:26:51;99298.78;;;38.17;20.87
73501;BME280;61721;42.206;25.320;2023-07-13T13:29:21;99293.25;;;38.20;21.89
73501;BME280;61721;42.206;25.320;2023-07-13T13:31:49;99293.00;;;38.25;20.65
73501;BME280;61721;42.206;25.320;2023-07-13T13:34:23;99276.44;;;37.96;20.85
73501;BME280;61721;42.206;25.320;2023-07-13T13:36:51;99283.19;;;38.19;22.03
73501;BME280;61721;42.206;25.320;2023-07-13T13:39:21;99278.22;;;38.28;21.63
73501;BME280;61721;42.206;25.320;2023-07-13T13:41:50;99281.59;;;38.34;20.99
73501;BME280;61721;42.206;25.320;2023-07-13T13:44:18;99273.00;;;38.15;20.94
73501;BME280;61721;42.206;25.320;2023-07-13T13:46:48;99266.50;;;38.26;21.86
73501;BME280;61721;42.206;25.320;2023-07-13T13:49:18;99256.97;;;38.15;20.95
73501;BME280;61721;42.206;25.320;2023-07-13T13:51:54;99253.38;;;38.30;21.64
73501;BME280;61721;42.206;25.320;2023-07-13T13:56:52;99259.63;;;38.12;20.87
73501;BME280;61721;42.206;25.320;2023-07-13T13:59:21;99256.25;;;38.18;20.79
73501;BME280;61721;42.206;25.320;2023-07-13T14:01:48;99259.06;;;38.18;21.89
73501;BME280;61721;42.206;25.320;2023-07-13T14:04:18;99256.25;;;38.06;21.00
73501;BME280;61721;42.206;25.320;2023-07-13T14:06:45;99247.22;;;38.13;21.47
73501;BME280;61721;42.206;25.320;2023-07-13T14:09:19;99246.28;;;38.09;21.40
73501;BME280;61721;42.206;25.320;2023-07-13T14:11:49;99244.28;;;38.09;21.18
73501;BME280;61721;42.206;25.320;2023-07-13T14:14:19;99243.25;;;38.14;21.65
73501;BME280;61721;42.206;25.320;2023-07-13T14:16:47;99242.75;;;38.24;21.42
73501;BME280;61721;42.206;25.320;2023-07-13T14:19:19;99241.00;;;38.19;21.80
73501;BME280;61721;42.206;25.320;2023-07-13T14:21:47;99237.63;;;38.14;21.31